IAH weather

Public forecast

Using degrees Fahrenheit for public forecast. Weather courtesy of forecast.io.

Current aviation weather report (METAR) for George Bush Intercontinental Houston Airport

Retrieved 2020/08/14 21:53 UTC (1 hour ago):

KIAH 142153Z 15009KT 10SM SCT060 37/22 A2986 RMK AO2 SLP110 T03670222

Aviation forecast (TAF) for George Bush Intercontinental Houston Airport

Retrieved 2020/08/14 18:36 UTC (5 hours ago):

TAF KIAH 141735Z 1418/1524 23009KT P6SM FEW030 SCT250 FM142000 18009KT P6SM SKC FM150600 20006KT P6SM SKC FM151400 23007KT P6SM SCT250